sensor_id;sensor_type;location;lat;lon;timestamp;P1;durP1;ratioP1;P2;durP2;ratioP2
37867;SDS011;24011;48.880;9.190;2022-11-25T00:01:47;1.27;;;1.20;;
37867;SDS011;24011;48.880;9.190;2022-11-25T00:05:21;1.20;;;1.10;;
37867;SDS011;24011;48.880;9.190;2022-11-25T00:08:46;1.10;;;1.00;;
37867;SDS011;24011;48.880;9.190;2022-11-25T00:12:21;1.15;;;1.00;;
37867;SDS011;24011;48.880;9.190;2022-11-25T00:15:33;1.10;;;1.10;;
37867;SDS011;24011;48.880;9.190;2022-11-25T00:18:29;1.17;;;1.10;;
37867;SDS011;24011;48.880;9.190;2022-11-25T00:21:39;1.20;;;1.20;;
37867;SDS011;24011;48.880;9.190;2022-11-25T00:24:53;1.10;;;1.00;;
37867;SDS011;24011;48.880;9.190;2022-11-25T00:27:48;1.17;;;1.10;;
37867;SDS011;24011;48.880;9.190;2022-11-25T00:30:53;1.10;;;1.00;;
37867;SDS011;24011;48.880;9.190;2022-11-25T00:33:52;1.17;;;1.08;;
37867;SDS011;24011;48.880;9.190;2022-11-25T00:36:56;1.10;;;1.10;;
37867;SDS011;24011;48.880;9.190;2022-11-25T00:39:54;0.98;;;0.93;;
37867;SDS011;24011;48.880;9.190;2022-11-25T00:42:59;1.25;;;1.15;;
37867;SDS011;24011;48.880;9.190;2022-11-25T00:46:18;1.20;;;1.10;;
37867;SDS011;24011;48.880;9.190;2022-11-25T00:49:36;1.20;;;1.10;;
37867;SDS011;24011;48.880;9.190;2022-11-25T00:52:30;0.90;;;0.90;;
37867;SDS011;24011;48.880;9.190;2022-11-25T00:55:29;1.10;;;1.10;;
37867;SDS011;24011;48.880;9.190;2022-11-25T00:58:30;1.08;;;1.08;;
37867;SDS011;24011;48.880;9.190;2022-11-25T01:01:29;2.05;;;1.20;;
37867;SDS011;24011;48.880;9.190;2022-11-25T01:04:24;0.90;;;0.90;;
37867;SDS011;24011;48.880;9.190;2022-11-25T01:07:28;1.20;;;1.10;;
37867;SDS011;24011;48.880;9.190;2022-11-25T01:10:30;0.93;;;0.90;;
37867;SDS011;24011;48.880;9.190;2022-11-25T01:13:36;1.60;;;1.20;;
37867;SDS011;24011;48.880;9.190;2022-11-25T01:16:40;1.40;;;1.30;;
37867;SDS011;24011;48.880;9.190;2022-11-25T01:19:40;1.27;;;1.17;;
37867;SDS011;24011;48.880;9.190;2022-11-25T01:22:34;1.10;;;1.00;;
37867;SDS011;24011;48.880;9.190;2022-11-25T01:25:40;1.30;;;1.20;;
37867;SDS011;24011;48.880;9.190;2022-11-25T01:28:30;1.23;;;1.13;;
37867;SDS011;24011;48.880;9.190;2022-11-25T01:31:39;1.02;;;0.93;;
37867;SDS011;24011;48.880;9.190;2022-11-25T01:34:46;1.20;;;1.10;;
37867;SDS011;24011;48.880;9.190;2022-11-25T01:38:10;1.10;;;1.00;;
37867;SDS011;24011;48.880;9.190;2022-11-25T01:41:42;1.00;;;1.00;;
37867;SDS011;24011;48.880;9.190;2022-11-25T01:48:59;1.30;;;1.20;;
37867;SDS011;24011;48.880;9.190;2022-11-25T01:52:05;1.00;;;1.00;;
37867;SDS011;24011;48.880;9.190;2022-11-25T01:58:19;1.20;;;1.10;;
37867;SDS011;24011;48.880;9.190;2022-11-25T02:01:30;1.48;;;1.20;;
37867;SDS011;24011;48.880;9.190;2022-11-25T02:04:34;1.20;;;0.95;;
37867;SDS011;24011;48.880;9.190;2022-11-25T02:07:35;1.10;;;1.10;;
37867;SDS011;24011;48.880;9.190;2022-11-25T02:10:40;1.05;;;0.93;;
37867;SDS011;24011;48.880;9.190;2022-11-25T02:13:45;1.20;;;1.10;;
37867;SDS011;24011;48.880;9.190;2022-11-25T02:16:51;0.90;;;0.90;;
37867;SDS011;24011;48.880;9.190;2022-11-25T02:20:01;1.10;;;1.00;;
37867;SDS011;24011;48.880;9.190;2022-11-25T02:23:07;1.23;;;1.13;;
37867;SDS011;24011;48.880;9.190;2022-11-25T02:26:23;1.20;;;1.08;;
37867;SDS011;24011;48.880;9.190;2022-11-25T02:32:35;1.00;;;1.00;;
37867;SDS011;24011;48.880;9.190;2022-11-25T02:35:47;0.90;;;0.90;;
37867;SDS011;24011;48.880;9.190;2022-11-25T02:38:53;1.27;;;1.17;;
37867;SDS011;24011;48.880;9.190;2022-11-25T02:42:04;1.35;;;1.10;;
37867;SDS011;24011;48.880;9.190;2022-11-25T02:48:29;1.20;;;1.10;;
37867;SDS011;24011;48.880;9.190;2022-11-25T02:52:05;1.23;;;1.13;;
37867;SDS011;24011;48.880;9.190;2022-11-25T02:58:53;1.10;;;1.00;;
37867;SDS011;24011;48.880;9.190;2022-11-25T03:02:17;1.25;;;1.15;;
37867;SDS011;24011;48.880;9.190;2022-11-25T03:05:49;1.10;;;1.00;;
37867;SDS011;24011;48.880;9.190;2022-11-25T03:09:29;1.15;;;1.05;;
37867;SDS011;24011;48.880;9.190;2022-11-25T03:13:07;0.90;;;0.90;;
37867;SDS011;24011;48.880;9.190;2022-11-25T03:16:49;1.05;;;1.00;;
37867;SDS011;24011;48.880;9.190;2022-11-25T03:20:15;1.00;;;1.00;;
37867;SDS011;24011;48.880;9.190;2022-11-25T03:23:37;1.05;;;1.00;;
37867;SDS011;24011;48.880;9.190;2022-11-25T03:26:49;1.00;;;1.00;;
37867;SDS011;24011;48.880;9.190;2022-11-25T03:29:48;1.38;;;1.27;;
37867;SDS011;24011;48.880;9.190;2022-11-25T03:32:55;1.00;;;0.90;;
37867;SDS011;24011;48.880;9.190;2022-11-25T03:35:51;1.05;;;0.95;;
37867;SDS011;24011;48.880;9.190;2022-11-25T03:38:55;0.90;;;0.90;;
37867;SDS011;24011;48.880;9.190;2022-11-25T03:42:19;1.10;;;1.10;;
37867;SDS011;24011;48.880;9.190;2022-11-25T03:45:25;1.20;;;1.10;;
37867;SDS011;24011;48.880;9.190;2022-11-25T03:48:37;1.10;;;1.00;;
37867;SDS011;24011;48.880;9.190;2022-11-25T03:51:31;1.30;;;1.20;;
37867;SDS011;24011;48.880;9.190;2022-11-25T03:54:37;0.93;;;0.93;;
37867;SDS011;24011;48.880;9.190;2022-11-25T03:57:43;0.90;;;0.90;;
37867;SDS011;24011;48.880;9.190;2022-11-25T04:01:07;1.10;;;1.00;;
37867;SDS011;24011;48.880;9.190;2022-11-25T04:04:25;0.98;;;0.98;;
37867;SDS011;24011;48.880;9.190;2022-11-25T04:07:21;1.27;;;1.17;;
37867;SDS011;24011;48.880;9.190;2022-11-25T04:10:32;1.20;;;1.10;;
37867;SDS011;24011;48.880;9.190;2022-11-25T04:13:31;1.30;;;1.20;;
37867;SDS011;24011;48.880;9.190;2022-11-25T04:16:56;1.33;;;1.23;;
37867;SDS011;24011;48.880;9.190;2022-11-25T04:20:31;1.30;;;1.20;;
37867;SDS011;24011;48.880;9.190;2022-11-25T04:23:57;1.33;;;1.17;;
37867;SDS011;24011;48.880;9.190;2022-11-25T04:27:25;1.50;;;1.40;;
37867;SDS011;24011;48.880;9.190;2022-11-25T04:30:51;1.50;;;1.40;;
37867;SDS011;24011;48.880;9.190;2022-11-25T04:34:33;1.60;;;1.50;;
37867;SDS011;24011;48.880;9.190;2022-11-25T04:41:57;1.65;;;1.55;;
37867;SDS011;24011;48.880;9.190;2022-11-25T04:45:27;1.40;;;1.30;;
37867;SDS011;24011;48.880;9.190;2022-11-25T04:48:51;1.85;;;1.33;;
37867;SDS011;24011;48.880;9.190;2022-11-25T04:52:33;1.48;;;1.38;;
37867;SDS011;24011;48.880;9.190;2022-11-25T04:56:09;1.58;;;1.48;;
37867;SDS011;24011;48.880;9.190;2022-11-25T04:59:27;1.73;;;1.63;;
37867;SDS011;24011;48.880;9.190;2022-11-25T05:02:24;1.60;;;1.50;;
37867;SDS011;24011;48.880;9.190;2022-11-25T05:08:39;1.55;;;1.45;;
37867;SDS011;24011;48.880;9.190;2022-11-25T05:12:04;1.80;;;1.70;;
37867;SDS011;24011;48.880;9.190;2022-11-25T05:15:40;1.60;;;1.50;;
37867;SDS011;24011;48.880;9.190;2022-11-25T05:19:04;1.60;;;1.50;;
37867;SDS011;24011;48.880;9.190;2022-11-25T05:22:20;1.60;;;1.50;;
37867;SDS011;24011;48.880;9.190;2022-11-25T05:25:34;1.58;;;1.48;;
37867;SDS011;24011;48.880;9.190;2022-11-25T05:28:59;1.80;;;1.70;;
37867;SDS011;24011;48.880;9.190;2022-11-25T05:32:22;1.60;;;1.50;;
37867;SDS011;24011;48.880;9.190;2022-11-25T05:35:34;1.60;;;1.50;;
37867;SDS011;24011;48.880;9.190;2022-11-25T05:42:14;1.40;;;1.30;;
37867;SDS011;24011;48.880;9.190;2022-11-25T05:46:40;1.30;;;1.20;;
37867;SDS011;24011;48.880;9.190;2022-11-25T05:50:02;1.20;;;1.20;;
37867;SDS011;24011;48.880;9.190;2022-11-25T05:56:44;1.50;;;1.40;;
37867;SDS011;24011;48.880;9.190;2022-11-25T06:00:00;1.55;;;1.45;;
37867;SDS011;24011;48.880;9.190;2022-11-25T06:03:34;1.48;;;1.38;;
37867;SDS011;24011;48.880;9.190;2022-11-25T06:06:40;1.30;;;1.20;;
37867;SDS011;24011;48.880;9.190;2022-11-25T06:09:53;1.40;;;1.30;;
37867;SDS011;24011;48.880;9.190;2022-11-25T06:13:01;1.40;;;1.30;;
37867;SDS011;24011;48.880;9.190;2022-11-25T06:16:22;2.50;;;1.55;;
37867;SDS011;24011;48.880;9.190;2022-11-25T06:19:38;2.10;;;1.90;;
37867;SDS011;24011;48.880;9.190;2022-11-25T07:24:41;1.60;;;1.50;;
37867;SDS011;24011;48.880;9.190;2022-11-25T07:35:52;1.30;;;1.20;;
37867;SDS011;24011;48.880;9.190;2022-11-25T07:55:52;1.67;;;1.58;;
37867;SDS011;24011;48.880;9.190;2022-11-25T08:33:35;1.73;;;1.50;;
37867;SDS011;24011;48.880;9.190;2022-11-25T08:36:32;1.50;;;1.40;;
37867;SDS011;24011;48.880;9.190;2022-11-25T08:39:31;1.63;;;1.52;;
37867;SDS011;24011;48.880;9.190;2022-11-25T08:42:24;1.63;;;1.52;;
37867;SDS011;24011;48.880;9.190;2022-11-25T08:45:33;1.98;;;1.60;;
37867;SDS011;24011;48.880;9.190;2022-11-25T08:48:42;1.70;;;1.60;;
37867;SDS011;24011;48.880;9.190;2022-11-25T08:51:24;2.22;;;1.77;;
37867;SDS011;24011;48.880;9.190;2022-11-25T08:54:43;1.88;;;1.77;;
37867;SDS011;24011;48.880;9.190;2022-11-25T08:57:25;2.10;;;1.90;;
37867;SDS011;24011;48.880;9.190;2022-11-25T09:00:19;1.77;;;1.67;;
37867;SDS011;24011;48.880;9.190;2022-11-25T09:02:51;2.10;;;1.90;;
37867;SDS011;24011;48.880;9.190;2022-11-25T09:10:22;1.63;;;1.52;;
37867;SDS011;24011;48.880;9.190;2022-11-25T09:13:31;1.73;;;1.60;;
37867;SDS011;24011;48.880;9.190;2022-11-25T09:16:36;1.75;;;1.65;;
37867;SDS011;24011;48.880;9.190;2022-11-25T09:19:57;1.60;;;1.50;;
37867;SDS011;24011;48.880;9.190;2022-11-25T09:23:45;1.85;;;1.67;;
37867;SDS011;24011;48.880;9.190;2022-11-25T09:27:03;1.73;;;1.60;;
37867;SDS011;24011;48.880;9.190;2022-11-25T09:30:06;1.83;;;1.40;;
37867;SDS011;24011;48.880;9.190;2022-11-25T09:33:07;1.77;;;1.63;;
37867;SDS011;24011;48.880;9.190;2022-11-25T09:36:21;1.55;;;1.45;;
37867;SDS011;24011;48.880;9.190;2022-11-25T09:39:21;1.63;;;1.40;;
37867;SDS011;24011;48.880;9.190;2022-11-25T09:42:30;1.77;;;1.67;;
37867;SDS011;24011;48.880;9.190;2022-11-25T09:45:50;1.70;;;1.60;;
37867;SDS011;24011;48.880;9.190;2022-11-25T09:49:09;1.73;;;1.58;;
37867;SDS011;24011;48.880;9.190;2022-11-25T09:52:39;3.10;;;1.65;;
37867;SDS011;24011;48.880;9.190;2022-11-25T09:55:57;1.95;;;1.50;;
37867;SDS011;24011;48.880;9.190;2022-11-25T09:59:10;1.58;;;1.48;;
37867;SDS011;24011;48.880;9.190;2022-11-25T10:02:09;1.60;;;1.50;;
37867;SDS011;24011;48.880;9.190;2022-11-25T10:05:17;1.45;;;1.35;;
37867;SDS011;24011;48.880;9.190;2022-11-25T10:41:25;1.48;;;1.38;;
37867;SDS011;24011;48.880;9.190;2022-11-25T10:44:31;1.52;;;1.42;;
37867;SDS011;24011;48.880;9.190;2022-11-25T10:47:33;1.55;;;1.40;;
37867;SDS011;24011;48.880;9.190;2022-11-25T13:15:55;0.98;;;0.98;;
37867;SDS011;24011;48.880;9.190;2022-11-25T13:18:47;1.10;;;1.00;;
37867;SDS011;24011;48.880;9.190;2022-11-25T13:21:55;1.00;;;1.00;;
37867;SDS011;24011;48.880;9.190;2022-11-25T13:24:53;0.85;;;0.85;;
37867;SDS011;24011;48.880;9.190;2022-11-25T13:28:01;3.15;;;0.80;;
37867;SDS011;24011;48.880;9.190;2022-11-25T13:32:02;1.48;;;0.93;;
37867;SDS011;24011;48.880;9.190;2022-11-25T13:39:03;0.80;;;0.80;;
37867;SDS011;24011;48.880;9.190;2022-11-25T13:42:14;0.65;;;0.65;;
37867;SDS011;24011;48.880;9.190;2022-11-25T13:45:26;0.80;;;0.80;;
37867;SDS011;24011;48.880;9.190;2022-11-25T13:48:19;0.70;;;0.70;;
37867;SDS011;24011;48.880;9.190;2022-11-25T13:51:48;0.70;;;0.70;;
37867;SDS011;24011;48.880;9.190;2022-11-25T13:58:23;0.80;;;0.80;;
37867;SDS011;24011;48.880;9.190;2022-11-25T14:01:26;1.90;;;0.90;;
37867;SDS011;24011;48.880;9.190;2022-11-25T14:04:21;1.00;;;0.90;;
37867;SDS011;24011;48.880;9.190;2022-11-25T14:07:39;0.73;;;0.73;;
37867;SDS011;24011;48.880;9.190;2022-11-25T14:10:52;0.70;;;0.70;;
37867;SDS011;24011;48.880;9.190;2022-11-25T14:14:15;0.80;;;0.80;;
37867;SDS011;24011;48.880;9.190;2022-11-25T14:17:29;0.65;;;0.65;;
37867;SDS011;24011;48.880;9.190;2022-11-25T14:20:47;0.57;;;0.57;;
37867;SDS011;24011;48.880;9.190;2022-11-25T14:23:56;0.70;;;0.70;;
37867;SDS011;24011;48.880;9.190;2022-11-25T14:26:58;0.60;;;0.60;;
37867;SDS011;24011;48.880;9.190;2022-11-25T14:30:06;0.70;;;0.70;;
37867;SDS011;24011;48.880;9.190;2022-11-25T14:32:58;0.52;;;0.52;;
37867;SDS011;24011;48.880;9.190;2022-11-25T14:35:51;0.70;;;0.70;;
37867;SDS011;24011;48.880;9.190;2022-11-25T14:38:58;2.33;;;0.70;;
37867;SDS011;24011;48.880;9.190;2022-11-25T14:44:51;0.55;;;0.50;;
37867;SDS011;24011;48.880;9.190;2022-11-25T14:48:14;0.60;;;0.60;;
37867;SDS011;24011;48.880;9.190;2022-11-25T14:51:19;0.70;;;0.65;;
37867;SDS011;24011;48.880;9.190;2022-11-25T14:54:41;0.60;;;0.60;;
37867;SDS011;24011;48.880;9.190;2022-11-25T14:58:14;0.50;;;0.50;;
37867;SDS011;24011;48.880;9.190;2022-11-25T15:01:50;0.57;;;0.57;;
37867;SDS011;24011;48.880;9.190;2022-11-25T15:04:33;0.52;;;0.52;;
37867;SDS011;24011;48.880;9.190;2022-11-25T15:08:12;0.60;;;0.60;;
37867;SDS011;24011;48.880;9.190;2022-11-25T15:11:28;0.75;;;0.60;;
37867;SDS011;24011;48.880;9.190;2022-11-25T15:14:35;0.50;;;0.50;;
37867;SDS011;24011;48.880;9.190;2022-11-25T15:17:42;0.57;;;0.57;;
37867;SDS011;24011;48.880;9.190;2022-11-25T15:20:52;0.80;;;0.80;;
37867;SDS011;24011;48.880;9.190;2022-11-25T15:23:45;0.50;;;0.50;;
37867;SDS011;24011;48.880;9.190;2022-11-25T15:26:57;0.57;;;0.40;;
37867;SDS011;24011;48.880;9.190;2022-11-25T15:29:56;0.60;;;0.60;;
37867;SDS011;24011;48.880;9.190;2022-11-25T15:33:15;1.00;;;0.60;;
37867;SDS011;24011;48.880;9.190;2022-11-25T15:36:21;0.50;;;0.50;;
37867;SDS011;24011;48.880;9.190;2022-11-25T15:39:44;0.60;;;0.60;;
37867;SDS011;24011;48.880;9.190;2022-11-25T15:43:20;0.80;;;0.80;;
37867;SDS011;24011;48.880;9.190;2022-11-25T15:46:03;0.70;;;0.70;;
37867;SDS011;24011;48.880;9.190;2022-11-25T15:49:13;0.32;;;0.32;;
37867;SDS011;24011;48.880;9.190;2022-11-25T15:52:21;0.50;;;0.50;;
37867;SDS011;24011;48.880;9.190;2022-11-25T15:55:28;1.85;;;0.57;;
37867;SDS011;24011;48.880;9.190;2022-11-25T15:58:35;0.73;;;0.73;;
37867;SDS011;24011;48.880;9.190;2022-11-25T16:01:38;0.60;;;0.60;;
37867;SDS011;24011;48.880;9.190;2022-11-25T16:04:41;0.70;;;0.70;;
37867;SDS011;24011;48.880;9.190;2022-11-25T16:07:21;1.77;;;0.70;;
37867;SDS011;24011;48.880;9.190;2022-11-25T16:10:33;0.70;;;0.70;;
37867;SDS011;24011;48.880;9.190;2022-11-25T16:13:47;0.70;;;0.70;;
37867;SDS011;24011;48.880;9.190;2022-11-25T16:16:58;0.70;;;0.70;;
37867;SDS011;24011;48.880;9.190;2022-11-25T16:20:14;2.03;;;0.80;;
37867;SDS011;24011;48.880;9.190;2022-11-25T16:23:27;0.70;;;0.70;;
37867;SDS011;24011;48.880;9.190;2022-11-25T16:26:39;0.68;;;0.68;;
37867;SDS011;24011;48.880;9.190;2022-11-25T16:30:06;0.77;;;0.77;;
37867;SDS011;24011;48.880;9.190;2022-11-25T16:33:20;0.63;;;0.63;;
37867;SDS011;24011;48.880;9.190;2022-11-25T16:36:27;0.85;;;0.80;;
37867;SDS011;24011;48.880;9.190;2022-11-25T16:39:33;0.55;;;0.55;;
37867;SDS011;24011;48.880;9.190;2022-11-25T16:42:45;0.43;;;0.43;;
37867;SDS011;24011;48.880;9.190;2022-11-25T16:45:57;0.60;;;0.60;;
37867;SDS011;24011;48.880;9.190;2022-11-25T16:49:28;0.65;;;0.65;;
37867;SDS011;24011;48.880;9.190;2022-11-25T16:52:51;0.60;;;0.60;;
37867;SDS011;24011;48.880;9.190;2022-11-25T16:56:22;0.60;;;0.60;;
37867;SDS011;24011;48.880;9.190;2022-11-25T16:59:57;0.75;;;0.65;;
37867;SDS011;24011;48.880;9.190;2022-11-25T17:03:29;0.70;;;0.70;;
37867;SDS011;24011;48.880;9.190;2022-11-25T17:06:58;0.75;;;0.70;;
37867;SDS011;24011;48.880;9.190;2022-11-25T17:10:28;0.57;;;0.57;;
37867;SDS011;24011;48.880;9.190;2022-11-25T17:13:29;0.70;;;0.70;;
37867;SDS011;24011;48.880;9.190;2022-11-25T17:16:58;0.50;;;0.50;;
37867;SDS011;24011;48.880;9.190;2022-11-25T17:20:05;0.70;;;0.50;;
37867;SDS011;24011;48.880;9.190;2022-11-25T17:23:16;0.60;;;0.60;;
37867;SDS011;24011;48.880;9.190;2022-11-25T17:26:34;0.80;;;0.80;;
37867;SDS011;24011;48.880;9.190;2022-11-25T17:29:29;0.70;;;0.70;;
37867;SDS011;24011;48.880;9.190;2022-11-25T17:32:40;0.60;;;0.60;;
37867;SDS011;24011;48.880;9.190;2022-11-25T17:35:52;0.82;;;0.82;;
37867;SDS011;24011;48.880;9.190;2022-11-25T17:38:58;0.70;;;0.70;;
37867;SDS011;24011;48.880;9.190;2022-11-25T17:42:05;0.68;;;0.68;;
37867;SDS011;24011;48.880;9.190;2022-11-25T17:45:12;1.85;;;0.68;;
37867;SDS011;24011;48.880;9.190;2022-11-25T17:48:28;0.60;;;0.60;;
37867;SDS011;24011;48.880;9.190;2022-11-25T17:51:40;0.60;;;0.60;;
37867;SDS011;24011;48.880;9.190;2022-11-25T17:54:46;0.85;;;0.85;;
37867;SDS011;24011;48.880;9.190;2022-11-25T17:58:04;0.70;;;0.70;;
37867;SDS011;24011;48.880;9.190;2022-11-25T18:01:34;0.60;;;0.60;;
37867;SDS011;24011;48.880;9.190;2022-11-25T18:05:28;0.90;;;0.90;;
37867;SDS011;24011;48.880;9.190;2022-11-25T18:08:52;0.80;;;0.80;;
37867;SDS011;24011;48.880;9.190;2022-11-25T18:12:35;0.60;;;0.60;;
37867;SDS011;24011;48.880;9.190;2022-11-25T18:16:28;0.80;;;0.80;;
37867;SDS011;24011;48.880;9.190;2022-11-25T18:19:59;0.60;;;0.60;;
37867;SDS011;24011;48.880;9.190;2022-11-25T18:23:53;0.60;;;0.60;;
37867;SDS011;24011;48.880;9.190;2022-11-25T18:27:24;0.90;;;0.90;;
37867;SDS011;24011;48.880;9.190;2022-11-25T18:30:46;0.70;;;0.70;;
37867;SDS011;24011;48.880;9.190;2022-11-25T18:34:17;1.00;;;0.90;;
37867;SDS011;24011;48.880;9.190;2022-11-25T18:42:23;0.60;;;0.60;;
37867;SDS011;24011;48.880;9.190;2022-11-25T18:45:53;0.80;;;0.80;;
37867;SDS011;24011;48.880;9.190;2022-11-25T18:49:47;0.70;;;0.70;;
37867;SDS011;24011;48.880;9.190;2022-11-25T18:53:23;0.93;;;0.93;;
37867;SDS011;24011;48.880;9.190;2022-11-25T19:01:08;0.75;;;0.75;;
37867;SDS011;24011;48.880;9.190;2022-11-25T19:04:35;0.80;;;0.80;;
37867;SDS011;24011;48.880;9.190;2022-11-25T19:08:05;0.70;;;0.70;;
37867;SDS011;24011;48.880;9.190;2022-11-25T19:12:11;0.75;;;0.75;;
37867;SDS011;24011;48.880;9.190;2022-11-25T19:44:23;0.80;;;0.80;;
37867;SDS011;24011;48.880;9.190;2022-11-25T19:52:25;0.70;;;0.70;;
37867;SDS011;24011;48.880;9.190;2022-11-25T20:12:25;0.68;;;0.68;;
37867;SDS011;24011;48.880;9.190;2022-11-25T20:16:19;0.73;;;0.73;;
37867;SDS011;24011;48.880;9.190;2022-11-25T20:36:27;0.68;;;0.68;;
37867;SDS011;24011;48.880;9.190;2022-11-25T20:40:01;0.60;;;0.60;;
37867;SDS011;24011;48.880;9.190;2022-11-25T20:43:26;0.60;;;0.60;;
37867;SDS011;24011;48.880;9.190;2022-11-25T20:46:53;0.60;;;0.60;;
37867;SDS011;24011;48.880;9.190;2022-11-25T20:50:18;0.60;;;0.60;;
37867;SDS011;24011;48.880;9.190;2022-11-25T20:53:54;0.70;;;0.70;;
37867;SDS011;24011;48.880;9.190;2022-11-25T20:57:24;0.70;;;0.70;;
37867;SDS011;24011;48.880;9.190;2022-11-25T21:00:54;0.70;;;0.70;;
37867;SDS011;24011;48.880;9.190;2022-11-25T21:04:18;0.80;;;0.80;;
37867;SDS011;24011;48.880;9.190;2022-11-25T21:07:24;0.68;;;0.68;;
37867;SDS011;24011;48.880;9.190;2022-11-25T21:10:37;0.75;;;0.75;;
37867;SDS011;24011;48.880;9.190;2022-11-25T21:14:12;0.57;;;0.57;;
37867;SDS011;24011;48.880;9.190;2022-11-25T21:21:49;0.60;;;0.60;;
37867;SDS011;24011;48.880;9.190;2022-11-25T21:25:25;0.80;;;0.80;;
37867;SDS011;24011;48.880;9.190;2022-11-25T21:28:39;0.80;;;0.80;;
37867;SDS011;24011;48.880;9.190;2022-11-25T21:31:44;0.80;;;0.80;;
37867;SDS011;24011;48.880;9.190;2022-11-25T21:34:56;0.70;;;0.70;;
37867;SDS011;24011;48.880;9.190;2022-11-25T21:38:02;0.70;;;0.70;;
37867;SDS011;24011;48.880;9.190;2022-11-25T21:41:31;0.60;;;0.60;;
37867;SDS011;24011;48.880;9.190;2022-11-25T21:44:35;0.60;;;0.60;;
37867;SDS011;24011;48.880;9.190;2022-11-25T21:47:46;0.60;;;0.60;;
37867;SDS011;24011;48.880;9.190;2022-11-25T21:50:55;0.60;;;0.60;;
37867;SDS011;24011;48.880;9.190;2022-11-25T21:54:08;0.63;;;0.60;;
37867;SDS011;24011;48.880;9.190;2022-11-25T21:57:32;0.60;;;0.60;;
37867;SDS011;24011;48.880;9.190;2022-11-25T22:03:32;0.70;;;0.70;;
37867;SDS011;24011;48.880;9.190;2022-11-25T22:06:27;0.60;;;0.60;;
37867;SDS011;24011;48.880;9.190;2022-11-25T22:09:32;0.80;;;0.80;;
37867;SDS011;24011;48.880;9.190;2022-11-25T22:12:56;0.60;;;0.60;;
37867;SDS011;24011;48.880;9.190;2022-11-25T22:16:03;0.60;;;0.60;;
37867;SDS011;24011;48.880;9.190;2022-11-25T22:19:20;0.60;;;0.60;;
37867;SDS011;24011;48.880;9.190;2022-11-25T22:22:26;0.65;;;0.65;;
37867;SDS011;24011;48.880;9.190;2022-11-25T22:25:56;0.70;;;0.70;;
37867;SDS011;24011;48.880;9.190;2022-11-25T22:28:59;0.60;;;0.60;;
37867;SDS011;24011;48.880;9.190;2022-11-25T22:32:14;0.60;;;0.60;;
37867;SDS011;24011;48.880;9.190;2022-11-25T22:35:07;0.60;;;0.60;;
37867;SDS011;24011;48.880;9.190;2022-11-25T22:38:18;0.60;;;0.60;;
37867;SDS011;24011;48.880;9.190;2022-11-25T22:41:11;0.60;;;0.60;;
37867;SDS011;24011;48.880;9.190;2022-11-25T22:44:48;0.50;;;0.50;;
37867;SDS011;24011;48.880;9.190;2022-11-25T22:51:24;0.70;;;0.70;;
37867;SDS011;24011;48.880;9.190;2022-11-25T22:54:44;0.57;;;0.57;;
37867;SDS011;24011;48.880;9.190;2022-11-25T22:58:17;0.60;;;0.60;;
37867;SDS011;24011;48.880;9.190;2022-11-25T23:01:58;0.73;;;0.73;;
37867;SDS011;24011;48.880;9.190;2022-11-25T23:05:04;0.73;;;0.70;;
37867;SDS011;24011;48.880;9.190;2022-11-25T23:08:38;0.55;;;0.55;;
37867;SDS011;24011;48.880;9.190;2022-11-25T23:12:11;0.60;;;0.60;;
37867;SDS011;24011;48.880;9.190;2022-11-25T23:15:35;0.40;;;0.40;;
37867;SDS011;24011;48.880;9.190;2022-11-25T23:19:09;0.68;;;0.68;;
37867;SDS011;24011;48.880;9.190;2022-11-25T23:22:21;0.55;;;0.55;;
37867;SDS011;24011;48.880;9.190;2022-11-25T23:25:51;0.70;;;0.70;;
37867;SDS011;24011;48.880;9.190;2022-11-25T23:29:17;0.60;;;0.60;;
37867;SDS011;24011;48.880;9.190;2022-11-25T23:32:47;0.77;;;0.70;;
37867;SDS011;24011;48.880;9.190;2022-11-25T23:36:16;0.60;;;0.60;;
37867;SDS011;24011;48.880;9.190;2022-11-25T23:39:51;0.70;;;0.70;;
37867;SDS011;24011;48.880;9.190;2022-11-25T23:43:15;0.60;;;0.60;;
37867;SDS011;24011;48.880;9.190;2022-11-25T23:46:51;0.47;;;0.47;;
37867;SDS011;24011;48.880;9.190;2022-11-25T23:50:21;0.82;;;0.82;;
37867;SDS011;24011;48.880;9.190;2022-11-25T23:54:09;0.63;;;0.63;;
37867;SDS011;24011;48.880;9.190;2022-11-25T23:57:30;0.52;;;0.52;;
